sensor_id;sensor_type;location;lat;lon;timestamp;pressure;altitude;pressure_sealevel;temperature;humidity
32638;BME280;19045;52.268;10.506;2023-04-29T00:00:43;100002.81;;;12.16;100.00
32638;BME280;19045;52.268;10.506;2023-04-29T00:03:09;99996.88;;;12.19;100.00
32638;BME280;19045;52.268;10.506;2023-04-29T00:05:36;99992.53;;;12.23;100.00
32638;BME280;19045;52.268;10.506;2023-04-29T00:08:04;100000.34;;;12.20;100.00
32638;BME280;19045;52.268;10.506;2023-04-29T00:10:30;99997.13;;;12.18;100.00
32638;BME280;19045;52.268;10.506;2023-04-29T00:12:57;100005.00;;;12.09;100.00
32638;BME280;19045;52.268;10.506;2023-04-29T00:15:25;100003.66;;;12.07;100.00
32638;BME280;19045;52.268;10.506;2023-04-29T00:17:53;100005.00;;;12.04;100.00
32638;BME280;19045;52.268;10.506;2023-04-29T00:20:20;99999.63;;;12.04;100.00
32638;BME280;19045;52.268;10.506;2023-04-29T00:22:47;99999.63;;;12.09;100.00
32638;BME280;19045;52.268;10.506;2023-04-29T00:25:13;100003.91;;;12.10;100.00
32638;BME280;19045;52.268;10.506;2023-04-29T00:27:41;99992.88;;;12.07;100.00
32638;BME280;19045;52.268;10.506;2023-04-29T00:30:08;100005.28;;;12.08;100.00
32638;BME280;19045;52.268;10.506;2023-04-29T00:32:35;100011.47;;;12.03;100.00
32638;BME280;19045;52.268;10.506;2023-04-29T00:35:04;99999.13;;;12.02;100.00
32638;BME280;19045;52.268;10.506;2023-04-29T00:37:30;100005.00;;;12.04;100.00
32638;BME280;19045;52.268;10.506;2023-04-29T00:39:57;100008.47;;;12.10;100.00
32638;BME280;19045;52.268;10.506;2023-04-29T00:42:30;100004.19;;;12.04;100.00
32638;BME280;19045;52.268;10.506;2023-04-29T00:44:57;100001.25;;;12.00;100.00
32638;BME280;19045;52.268;10.506;2023-04-29T00:47:24;100000.69;;;12.03;100.00
32638;BME280;19045;52.268;10.506;2023-04-29T00:49:51;100013.66;;;12.01;100.00
32638;BME280;19045;52.268;10.506;2023-04-29T00:52:19;100020.66;;;11.97;100.00
32638;BME280;19045;52.268;10.506;2023-04-29T00:54:46;100011.50;;;11.98;100.00
32638;BME280;19045;52.268;10.506;2023-04-29T00:57:13;100016.38;;;11.96;100.00
32638;BME280;19045;52.268;10.506;2023-04-29T00:59:40;100020.69;;;11.92;100.00
32638;BME280;19045;52.268;10.506;2023-04-29T01:02:07;100020.13;;;11.95;100.00
32638;BME280;19045;52.268;10.506;2023-04-29T01:04:33;100018.81;;;11.87;100.00
32638;BME280;19045;52.268;10.506;2023-04-29T01:07:03;100022.56;;;11.91;100.00
32638;BME280;19045;52.268;10.506;2023-04-29T01:09:46;100026.34;;;11.96;100.00
32638;BME280;19045;52.268;10.506;2023-04-29T01:12:19;100024.75;;;11.84;100.00
32638;BME280;19045;52.268;10.506;2023-04-29T01:14:53;100030.41;;;11.88;100.00
32638;BME280;19045;52.268;10.506;2023-04-29T01:17:30;100031.47;;;11.87;100.00
32638;BME280;19045;52.268;10.506;2023-04-29T01:19:59;100035.22;;;11.91;100.00
32638;BME280;19045;52.268;10.506;2023-04-29T01:22:27;100028.47;;;11.93;100.00
32638;BME280;19045;52.268;10.506;2023-04-29T01:24:55;100035.22;;;11.91;100.00
32638;BME280;19045;52.268;10.506;2023-04-29T01:27:28;100032.28;;;11.87;100.00
32638;BME280;19045;52.268;10.506;2023-04-29T01:30:00;100030.41;;;11.88;100.00
32638;BME280;19045;52.268;10.506;2023-04-29T01:32:39;100039.03;;;11.80;100.00
32638;BME280;19045;52.268;10.506;2023-04-29T01:35:14;100035.56;;;11.79;100.00
32638;BME280;19045;52.268;10.506;2023-04-29T01:37:48;100043.88;;;11.78;100.00
32638;BME280;19045;52.268;10.506;2023-04-29T01:40:25;100044.16;;;11.71;100.00
32638;BME280;19045;52.268;10.506;2023-04-29T01:42:59;100043.88;;;11.78;100.00
32638;BME280;19045;52.268;10.506;2023-04-29T01:45:27;100049.56;;;11.71;100.00
32638;BME280;19045;52.268;10.506;2023-04-29T01:47:56;100056.25;;;11.69;100.00
32638;BME280;19045;52.268;10.506;2023-04-29T01:50:24;100050.88;;;11.64;100.00
32638;BME280;19045;52.268;10.506;2023-04-29T01:52:51;100060.31;;;11.66;100.00
32638;BME280;19045;52.268;10.506;2023-04-29T01:55:22;100060.56;;;11.70;100.00
32638;BME280;19045;52.268;10.506;2023-04-29T01:57:48;100055.19;;;11.70;100.00
32638;BME280;19045;52.268;10.506;2023-04-29T02:00:15;100063.78;;;11.67;100.00
32638;BME280;19045;52.268;10.506;2023-04-29T02:02:42;100068.09;;;11.68;100.00
32638;BME280;19045;52.268;10.506;2023-04-29T02:05:09;100068.09;;;11.68;100.00
32638;BME280;19045;52.268;10.506;2023-04-29T02:07:36;100071.06;;;11.66;100.00
32638;BME280;19045;52.268;10.506;2023-04-29T02:10:03;100067.84;;;11.64;100.00
32638;BME280;19045;52.268;10.506;2023-04-29T02:12:31;100073.50;;;11.63;100.00
32638;BME280;19045;52.268;10.506;2023-04-29T02:14:58;100077.53;;;11.60;100.00
32638;BME280;19045;52.268;10.506;2023-04-29T02:17:24;100074.06;;;11.60;100.00
32638;BME280;19045;52.268;10.506;2023-04-29T02:19:51;100093.69;;;11.50;100.00
32638;BME280;19045;52.268;10.506;2023-04-29T02:22:19;100086.44;;;11.56;100.00
32638;BME280;19045;52.268;10.506;2023-04-29T02:24:46;100089.09;;;11.61;100.00
32638;BME280;19045;52.268;10.506;2023-04-29T02:27:13;100093.16;;;11.53;100.00
32638;BME280;19045;52.268;10.506;2023-04-29T02:29:41;100088.06;;;11.47;100.00
32638;BME280;19045;52.268;10.506;2023-04-29T02:32:07;100088.28;;;11.50;100.00
32638;BME280;19045;52.268;10.506;2023-04-29T02:34:34;100101.22;;;11.48;100.00
32638;BME280;19045;52.268;10.506;2023-04-29T02:37:01;100091.81;;;11.46;100.00
32638;BME280;19045;52.268;10.506;2023-04-29T02:39:29;100098.28;;;11.39;100.00
32638;BME280;19045;52.268;10.506;2023-04-29T02:41:55;100097.72;;;11.37;100.00
32638;BME280;19045;52.268;10.506;2023-04-29T02:44:22;100105.53;;;11.34;100.00
32638;BME280;19045;52.268;10.506;2023-04-29T02:46:51;100103.09;;;11.37;100.00
32638;BME280;19045;52.268;10.506;2023-04-29T02:49:18;100107.16;;;11.35;100.00
32638;BME280;19045;52.268;10.506;2023-04-29T02:51:44;100109.59;;;11.26;100.00
32638;BME280;19045;52.268;10.506;2023-04-29T02:54:14;100104.47;;;11.25;100.00
32638;BME280;19045;52.268;10.506;2023-04-29T02:56:41;100109.84;;;11.30;100.00
32638;BME280;19045;52.268;10.506;2023-04-29T02:59:08;100107.69;;;11.22;100.00
32638;BME280;19045;52.268;10.506;2023-04-29T03:01:35;100120.06;;;11.23;100.00
32638;BME280;19045;52.268;10.506;2023-04-29T03:04:04;100115.50;;;11.23;100.00
32638;BME280;19045;52.268;10.506;2023-04-29T03:06:31;100121.94;;;11.17;100.00
32638;BME280;19045;52.268;10.506;2023-04-29T03:08:57;100115.75;;;11.12;100.00
32638;BME280;19045;52.268;10.506;2023-04-29T03:11:24;100121.16;;;11.17;100.00
32638;BME280;19045;52.268;10.506;2023-04-29T03:13:50;100120.88;;;11.13;100.00
32638;BME280;19045;52.268;10.506;2023-04-29T03:16:18;100118.16;;;11.08;100.00
32638;BME280;19045;52.268;10.506;2023-04-29T03:18:45;100120.06;;;11.13;100.00
32638;BME280;19045;52.268;10.506;2023-04-29T03:21:14;100124.88;;;11.06;100.00
32638;BME280;19045;52.268;10.506;2023-04-29T03:23:40;100115.75;;;11.12;100.00
32638;BME280;19045;52.268;10.506;2023-04-29T03:26:07;100124.91;;;11.16;100.00
32638;BME280;19045;52.268;10.506;2023-04-29T03:28:34;100120.59;;;11.10;100.00
32638;BME280;19045;52.268;10.506;2023-04-29T03:31:01;100127.59;;;11.16;100.00
32638;BME280;19045;52.268;10.506;2023-04-29T03:33:27;100126.75;;;11.10;100.00
32638;BME280;19045;52.268;10.506;2023-04-29T03:35:54;100122.72;;;11.08;100.00
32638;BME280;19045;52.268;10.506;2023-04-29T03:38:22;100132.94;;;11.11;100.00
32638;BME280;19045;52.268;10.506;2023-04-29T03:40:50;100130.25;;;11.11;100.00
32638;BME280;19045;52.268;10.506;2023-04-29T03:43:17;100131.88;;;11.07;100.00
32638;BME280;19045;52.268;10.506;2023-04-29T03:45:45;100138.88;;;11.13;100.00
32638;BME280;19045;52.268;10.506;2023-04-29T03:48:11;100137.25;;;11.12;100.00
32638;BME280;19045;52.268;10.506;2023-04-29T03:50:38;100139.13;;;11.11;100.00
32638;BME280;19045;52.268;10.506;2023-04-29T03:53:05;100135.34;;;11.07;100.00
32638;BME280;19045;52.268;10.506;2023-04-29T03:55:34;100146.09;;;11.07;100.00
32638;BME280;19045;52.268;10.506;2023-04-29T03:58:01;100143.69;;;11.01;100.00
32638;BME280;19045;52.268;10.506;2023-04-29T04:00:28;100152.56;;;10.96;100.00
32638;BME280;19045;52.268;10.506;2023-04-29T04:02:56;100153.66;;;11.00;100.00
32638;BME280;19045;52.268;10.506;2023-04-29T04:05:23;100163.84;;;10.98;100.00
32638;BME280;19045;52.268;10.506;2023-04-29T04:07:50;100164.38;;;10.95;100.00
32638;BME280;19045;52.268;10.506;2023-04-29T04:10:26;100175.16;;;11.00;100.00
32638;BME280;19045;52.268;10.506;2023-04-29T04:12:55;100177.56;;;11.02;100.00
32638;BME280;19045;52.268;10.506;2023-04-29T04:15:22;100181.31;;;10.96;100.00
32638;BME280;19045;52.268;10.506;2023-04-29T04:17:49;100189.63;;;10.94;100.00
32638;BME280;19045;52.268;10.506;2023-04-29T04:20:16;100197.69;;;10.94;100.00
32638;BME280;19045;52.268;10.506;2023-04-29T04:22:43;100194.19;;;10.88;100.00
32638;BME280;19045;52.268;10.506;2023-04-29T04:25:09;100206.28;;;10.86;100.00
32638;BME280;19045;52.268;10.506;2023-04-29T04:27:36;100210.59;;;10.92;100.00
32638;BME280;19045;52.268;10.506;2023-04-29T04:30:06;100218.63;;;10.82;100.00
32638;BME280;19045;52.268;10.506;2023-04-29T04:32:33;100223.47;;;10.80;100.00
32638;BME280;19045;52.268;10.506;2023-04-29T04:34:59;100216.19;;;10.80;100.00
32638;BME280;19045;52.268;10.506;2023-04-29T04:37:26;100229.63;;;10.75;100.00
32638;BME280;19045;52.268;10.506;2023-04-29T04:39:53;100224.25;;;10.80;100.00
32638;BME280;19045;52.268;10.506;2023-04-29T04:42:21;100228.81;;;10.75;100.00
32638;BME280;19045;52.268;10.506;2023-04-29T04:44:48;100231.50;;;10.75;100.00
32638;BME280;19045;52.268;10.506;2023-04-29T04:47:16;100234.19;;;10.75;100.00
32638;BME280;19045;52.268;10.506;2023-04-29T04:49:42;100232.31;;;10.80;100.00
32638;BME280;19045;52.268;10.506;2023-04-29T04:52:09;100242.00;;;10.76;100.00
32638;BME280;19045;52.268;10.506;2023-04-29T04:54:36;100248.13;;;10.72;100.00
32638;BME280;19045;52.268;10.506;2023-04-29T04:57:03;100249.25;;;10.76;100.00
32638;BME280;19045;52.268;10.506;2023-04-29T04:59:30;100252.97;;;10.70;100.00
32638;BME280;19045;52.268;10.506;2023-04-29T05:01:58;100249.75;;;10.73;100.00
32638;BME280;19045;52.268;10.506;2023-04-29T05:04:26;100269.66;;;10.77;100.00
32638;BME280;19045;52.268;10.506;2023-04-29T05:06:52;100270.97;;;10.69;100.00
32638;BME280;19045;52.268;10.506;2023-04-29T05:09:19;100278.22;;;10.69;100.00
32638;BME280;19045;52.268;10.506;2023-04-29T05:11:46;100284.69;;;10.73;100.00
32638;BME280;19045;52.268;10.506;2023-04-29T05:14:13;100279.81;;;10.65;100.00
32638;BME280;19045;52.268;10.506;2023-04-29T05:16:39;100284.13;;;10.66;100.00
32638;BME280;19045;52.268;10.506;2023-04-29T05:19:07;100291.34;;;10.65;100.00
32638;BME280;19045;52.268;10.506;2023-04-29T05:21:35;100291.59;;;10.59;100.00
32638;BME280;19045;52.268;10.506;2023-04-29T05:24:02;100302.03;;;10.55;100.00
32638;BME280;19045;52.268;10.506;2023-04-29T05:26:29;100303.09;;;10.54;100.00
32638;BME280;19045;52.268;10.506;2023-04-29T05:28:56;100303.38;;;10.53;100.00
32638;BME280;19045;52.268;10.506;2023-04-29T05:31:23;100308.97;;;10.46;100.00
32638;BME280;19045;52.268;10.506;2023-04-29T05:33:50;100311.09;;;10.44;100.00
32638;BME280;19045;52.268;10.506;2023-04-29T05:36:16;100308.16;;;10.41;100.00
32638;BME280;19045;52.268;10.506;2023-04-29T05:38:44;100313.25;;;10.42;100.00
32638;BME280;19045;52.268;10.506;2023-04-29T05:41:11;100321.06;;;10.44;100.00
32638;BME280;19045;52.268;10.506;2023-04-29T05:43:42;100330.69;;;10.40;100.00
32638;BME280;19045;52.268;10.506;2023-04-29T05:46:11;100324.22;;;10.35;100.00
32638;BME280;19045;52.268;10.506;2023-04-29T05:48:40;100317.19;;;10.29;100.00
32638;BME280;19045;52.268;10.506;2023-04-29T05:51:13;100329.84;;;10.34;100.00
32638;BME280;19045;52.268;10.506;2023-04-29T05:53:43;100329.34;;;10.37;100.00
32638;BME280;19045;52.268;10.506;2023-04-29T05:56:13;100332.78;;;10.32;100.00
32638;BME280;19045;52.268;10.506;2023-04-29T05:58:41;100345.44;;;10.37;100.00
32638;BME280;19045;52.268;10.506;2023-04-29T06:01:07;100347.84;;;10.38;100.00
32638;BME280;19045;52.268;10.506;2023-04-29T06:03:34;100353.22;;;10.38;100.00
32638;BME280;19045;52.268;10.506;2023-04-29T06:06:01;100354.03;;;10.34;100.00
32638;BME280;19045;52.268;10.506;2023-04-29T06:08:28;100359.38;;;10.34;100.00
32638;BME280;19045;52.268;10.506;2023-04-29T06:10:55;100365.00;;;10.32;100.00
32638;BME280;19045;52.268;10.506;2023-04-29T06:13:23;100371.22;;;10.38;100.00
32638;BME280;19045;52.268;10.506;2023-04-29T06:15:50;100367.72;;;10.37;100.00
32638;BME280;19045;52.268;10.506;2023-04-29T06:18:17;100382.25;;;10.42;100.00
32638;BME280;19045;52.268;10.506;2023-04-29T06:20:43;100381.19;;;10.43;100.00
32638;BME280;19045;52.268;10.506;2023-04-29T06:23:10;100394.06;;;10.41;100.00
32638;BME280;19045;52.268;10.506;2023-04-29T06:25:37;100399.38;;;10.35;100.00
32638;BME280;19045;52.268;10.506;2023-04-29T06:28:03;100403.13;;;10.34;100.00
32638;BME280;19045;52.268;10.506;2023-04-29T06:30:34;100408.50;;;10.34;100.00
32638;BME280;19045;52.268;10.506;2023-04-29T06:33:00;100416.53;;;10.29;100.00
32638;BME280;19045;52.268;10.506;2023-04-29T06:35:27;100423.00;;;10.33;100.00
32638;BME280;19045;52.268;10.506;2023-04-29T06:37:53;100418.47;;;10.39;100.00
32638;BME280;19045;52.268;10.506;2023-04-29T06:40:20;100423.63;;;10.41;100.00
32638;BME280;19045;52.268;10.506;2023-04-29T06:42:47;100432.13;;;10.32;100.00
32638;BME280;19045;52.268;10.506;2023-04-29T06:45:14;100433.75;;;10.33;100.00
32638;BME280;19045;52.268;10.506;2023-04-29T06:47:43;100435.06;;;10.31;100.00
32638;BME280;19045;52.268;10.506;2023-04-29T06:50:11;100425.22;;;10.42;100.00
32638;BME280;19045;52.268;10.506;2023-04-29T06:52:37;100442.16;;;10.42;100.00
32638;BME280;19045;52.268;10.506;2023-04-29T06:55:05;100440.00;;;10.44;100.00
32638;BME280;19045;52.268;10.506;2023-04-29T06:57:32;100448.25;;;10.37;100.00
32638;BME280;19045;52.268;10.506;2023-04-29T06:59:58;100453.09;;;10.35;100.00
32638;BME280;19045;52.268;10.506;2023-04-29T07:02:28;100460.03;;;10.31;100.00
32638;BME280;19045;52.268;10.506;2023-04-29T07:04:56;100466.00;;;10.38;100.00
32638;BME280;19045;52.268;10.506;2023-04-29T07:07:24;100472.72;;;10.36;100.00
32638;BME280;19045;52.268;10.506;2023-04-29T07:09:51;100474.38;;;10.42;100.00
32638;BME280;19045;52.268;10.506;2023-04-29T07:12:18;100478.41;;;10.45;100.00
32638;BME280;19045;52.268;10.506;2023-04-29T07:14:45;100488.34;;;10.44;100.00
32638;BME280;19045;52.268;10.506;2023-04-29T07:17:12;100488.84;;;10.41;100.00
32638;BME280;19045;52.268;10.506;2023-04-29T07:19:38;100498.84;;;10.46;100.00
32638;BME280;19045;52.268;10.506;2023-04-29T07:22:06;100499.91;;;10.45;100.00
32638;BME280;19045;52.268;10.506;2023-04-29T07:24:33;100511.44;;;10.45;100.00
32638;BME280;19045;52.268;10.506;2023-04-29T07:27:00;100512.03;;;10.47;100.00
32638;BME280;19045;52.268;10.506;2023-04-29T07:29:29;100512.06;;;10.52;100.00
32638;BME280;19045;52.268;10.506;2023-04-29T07:31:55;100525.50;;;10.52;100.00
32638;BME280;19045;52.268;10.506;2023-04-29T07:34:22;100532.03;;;10.61;100.00
32638;BME280;19045;52.268;10.506;2023-04-29T07:36:49;100531.88;;;10.73;100.00
32638;BME280;19045;52.268;10.506;2023-04-29T07:39:16;100536.81;;;10.86;100.00
32638;BME280;19045;52.268;10.506;2023-04-29T07:41:43;100546.00;;;10.90;100.00
32638;BME280;19045;52.268;10.506;2023-04-29T07:44:10;100539.84;;;10.95;100.00
32638;BME280;19045;52.268;10.506;2023-04-29T07:46:37;100555.72;;;10.96;100.00
32638;BME280;19045;52.268;10.506;2023-04-29T07:49:03;100549.84;;;10.99;100.00
32638;BME280;19045;52.268;10.506;2023-04-29T07:51:31;100556.56;;;11.02;100.00
32638;BME280;19045;52.268;10.506;2023-04-29T07:53:57;100557.38;;;11.02;100.00
32638;BME280;19045;52.268;10.506;2023-04-29T07:56:25;100556.66;;;11.12;100.00
32638;BME280;19045;52.268;10.506;2023-04-29T07:58:52;100562.31;;;11.15;100.00
32638;BME280;19045;52.268;10.506;2023-04-29T08:01:19;100564.03;;;11.26;100.00
32638;BME280;19045;52.268;10.506;2023-04-29T08:03:45;100568.91;;;11.34;100.00
32638;BME280;19045;52.268;10.506;2023-04-29T08:06:12;100574.94;;;11.52;100.00
32638;BME280;19045;52.268;10.506;2023-04-29T08:08:39;100582.13;;;11.78;98.76
32638;BME280;19045;52.268;10.506;2023-04-29T08:11:05;100579.06;;;12.06;96.26
32638;BME280;19045;52.268;10.506;2023-04-29T08:13:33;100582.66;;;12.37;93.94
32638;BME280;19045;52.268;10.506;2023-04-29T08:16:00;100584.91;;;12.65;91.99
32638;BME280;19045;52.268;10.506;2023-04-29T08:18:27;100590.81;;;12.67;90.90
32638;BME280;19045;52.268;10.506;2023-04-29T08:20:55;100598.66;;;12.69;90.81
32638;BME280;19045;52.268;10.506;2023-04-29T08:23:21;100587.88;;;12.84;90.77
32638;BME280;19045;52.268;10.506;2023-04-29T08:25:48;100591.66;;;13.03;89.67
32638;BME280;19045;52.268;10.506;2023-04-29T08:28:16;100598.47;;;13.21;88.46
32638;BME280;19045;52.268;10.506;2023-04-29T08:30:45;100598.72;;;13.14;88.52
32638;BME280;19045;52.268;10.506;2023-04-29T08:33:11;100596.28;;;13.13;87.58
32638;BME280;19045;52.268;10.506;2023-04-29T08:35:38;100611.66;;;13.32;87.26
32638;BME280;19045;52.268;10.506;2023-04-29T08:38:06;100603.53;;;13.63;84.83
32638;BME280;19045;52.268;10.506;2023-04-29T08:40:34;100623.44;;;14.07;82.23
32638;BME280;19045;52.268;10.506;2023-04-29T08:43:02;100622.41;;;14.62;79.97
32638;BME280;19045;52.268;10.506;2023-04-29T08:45:34;100621.88;;;15.04;77.17
32638;BME280;19045;52.268;10.506;2023-04-29T08:48:04;100625.69;;;14.54;77.29
32638;BME280;19045;52.268;10.506;2023-04-29T08:50:37;100627.22;;;14.01;80.06
32638;BME280;19045;52.268;10.506;2023-04-29T08:53:04;100634.03;;;13.78;82.05
32638;BME280;19045;52.268;10.506;2023-04-29T08:55:33;100633.19;;;13.93;83.61
32638;BME280;19045;52.268;10.506;2023-04-29T08:58:01;100632.13;;;14.63;78.63
32638;BME280;19045;52.268;10.506;2023-04-29T09:00:29;100638.56;;;15.16;75.39
32638;BME280;19045;52.268;10.506;2023-04-29T09:02:57;100632.34;;;15.78;72.22
32638;BME280;19045;52.268;10.506;2023-04-29T09:05:27;100627.94;;;16.35;70.06
32638;BME280;19045;52.268;10.506;2023-04-29T09:07:56;100628.47;;;17.30;64.64
32638;BME280;19045;52.268;10.506;2023-04-29T09:10:26;100624.69;;;17.64;62.51
32638;BME280;19045;52.268;10.506;2023-04-29T09:13:07;100631.84;;;17.73;62.66
32638;BME280;19045;52.268;10.506;2023-04-29T09:15:35;100629.78;;;18.38;59.75
32638;BME280;19045;52.268;10.506;2023-04-29T09:18:02;100626.13;;;19.28;56.05
32638;BME280;19045;52.268;10.506;2023-04-29T09:20:38;100619.53;;;20.13;51.90
32638;BME280;19045;52.268;10.506;2023-04-29T09:23:05;100634.53;;;21.41;49.01
32638;BME280;19045;52.268;10.506;2023-04-29T09:25:32;100636.81;;;21.94;46.45
32638;BME280;19045;52.268;10.506;2023-04-29T09:28:13;100645.28;;;21.37;46.55
32638;BME280;19045;52.268;10.506;2023-04-29T09:30:44;100643.91;;;20.49;46.84
32638;BME280;19045;52.268;10.506;2023-04-29T09:33:11;100653.94;;;19.39;48.74
32638;BME280;19045;52.268;10.506;2023-04-29T09:35:41;100658.19;;;18.59;51.51
32638;BME280;19045;52.268;10.506;2023-04-29T09:38:09;100669.84;;;18.33;52.73
32638;BME280;19045;52.268;10.506;2023-04-29T09:40:37;100661.94;;;17.77;55.39
32638;BME280;19045;52.268;10.506;2023-04-29T09:43:11;100668.13;;;17.96;54.80
32638;BME280;19045;52.268;10.506;2023-04-29T09:45:40;100664.72;;;18.18;54.91
32638;BME280;19045;52.268;10.506;2023-04-29T09:48:08;100672.19;;;18.12;56.21
32638;BME280;19045;52.268;10.506;2023-04-29T09:50:43;100662.72;;;17.64;57.63
32638;BME280;19045;52.268;10.506;2023-04-29T09:53:27;100666.63;;;16.64;58.74
32638;BME280;19045;52.268;10.506;2023-04-29T09:55:58;100666.56;;;15.69;62.46
32638;BME280;19045;52.268;10.506;2023-04-29T09:58:27;100664.31;;;15.47;62.75
32638;BME280;19045;52.268;10.506;2023-04-29T10:00:55;100665.50;;;15.31;63.73
32638;BME280;19045;52.268;10.506;2023-04-29T10:03:24;100675.16;;;15.42;64.09
32638;BME280;19045;52.268;10.506;2023-04-29T10:05:55;100670.25;;;16.31;60.84
32638;BME280;19045;52.268;10.506;2023-04-29T10:08:22;100672.88;;;16.65;58.73
32638;BME280;19045;52.268;10.506;2023-04-29T10:10:52;100679.06;;;16.89;58.85
32638;BME280;19045;52.268;10.506;2023-04-29T10:13:22;100680.88;;;16.75;57.72
32638;BME280;19045;52.268;10.506;2023-04-29T10:15:57;100669.81;;;17.09;57.07
32638;BME280;19045;52.268;10.506;2023-04-29T10:18:32;100676.03;;;16.90;56.42
32638;BME280;19045;52.268;10.506;2023-04-29T10:21:05;100671.38;;;16.96;55.80
32638;BME280;19045;52.268;10.506;2023-04-29T10:23:33;100681.88;;;17.02;56.15
32638;BME280;19045;52.268;10.506;2023-04-29T10:26:00;100679.78;;;16.94;57.09
32638;BME280;19045;52.268;10.506;2023-04-29T10:28:29;100685.72;;;16.78;57.99
32638;BME280;19045;52.268;10.506;2023-04-29T10:30:58;100692.75;;;16.08;60.36
32638;BME280;19045;52.268;10.506;2023-04-29T10:33:28;100687.81;;;15.57;62.36
32638;BME280;19045;52.268;10.506;2023-04-29T10:35:56;100684.63;;;15.11;63.91
32638;BME280;19045;52.268;10.506;2023-04-29T10:38:30;100693.47;;;14.78;64.56
32638;BME280;19045;52.268;10.506;2023-04-29T10:41:03;100688.22;;;14.37;64.96
32638;BME280;19045;52.268;10.506;2023-04-29T10:43:33;100694.97;;;14.25;66.30
32638;BME280;19045;52.268;10.506;2023-04-29T10:46:20;100699.00;;;14.32;66.60
32638;BME280;19045;52.268;10.506;2023-04-29T10:48:50;100701.44;;;14.44;66.90
32638;BME280;19045;52.268;10.506;2023-04-29T10:51:40;100699.78;;;14.58;67.01
32638;BME280;19045;52.268;10.506;2023-04-29T10:54:12;100703.97;;;14.79;65.57
32638;BME280;19045;52.268;10.506;2023-04-29T10:56:41;100708.31;;;14.75;65.65
32638;BME280;19045;52.268;10.506;2023-04-29T10:59:10;100703.38;;;14.97;64.60
32638;BME280;19045;52.268;10.506;2023-04-29T11:01:47;100698.47;;;15.05;64.36
32638;BME280;19045;52.268;10.506;2023-04-29T11:04:16;100698.34;;;15.20;64.11
32638;BME280;19045;52.268;10.506;2023-04-29T11:06:44;100702.13;;;15.24;63.77
32638;BME280;19045;52.268;10.506;2023-04-29T11:09:18;100707.38;;;15.44;63.61
32638;BME280;19045;52.268;10.506;2023-04-29T11:12:00;100703.28;;;15.51;63.03
32638;BME280;19045;52.268;10.506;2023-04-29T11:14:30;100709.66;;;15.71;62.32
32638;BME280;19045;52.268;10.506;2023-04-29T11:16:59;100704.41;;;15.79;61.34
32638;BME280;19045;52.268;10.506;2023-04-29T11:19:30;100705.03;;;16.00;60.16
32638;BME280;19045;52.268;10.506;2023-04-29T11:22:09;100704.16;;;16.33;60.47
32638;BME280;19045;52.268;10.506;2023-04-29T11:24:47;100705.63;;;17.11;58.15
32638;BME280;19045;52.268;10.506;2023-04-29T11:27:15;100694.47;;;18.69;53.36
32638;BME280;19045;52.268;10.506;2023-04-29T11:29:43;100697.34;;;19.80;50.08
32638;BME280;19045;52.268;10.506;2023-04-29T11:32:10;100705.03;;;19.78;49.00
32638;BME280;19045;52.268;10.506;2023-04-29T11:34:37;100705.88;;;19.06;50.34
32638;BME280;19045;52.268;10.506;2023-04-29T11:37:04;100712.47;;;17.78;53.56
32638;BME280;19045;52.268;10.506;2023-04-29T11:39:32;100719.31;;;17.00;54.69
32638;BME280;19045;52.268;10.506;2023-04-29T11:42:04;100713.03;;;16.86;55.40
32638;BME280;19045;52.268;10.506;2023-04-29T11:44:32;100712.25;;;16.81;55.97
32638;BME280;19045;52.268;10.506;2023-04-29T11:47:03;100712.94;;;16.73;57.26
32638;BME280;19045;52.268;10.506;2023-04-29T11:49:30;100721.34;;;16.71;56.52
32638;BME280;19045;52.268;10.506;2023-04-29T11:51:57;100723.38;;;17.40;56.75
32638;BME280;19045;52.268;10.506;2023-04-29T11:54:25;100721.97;;;18.81;52.96
32638;BME280;19045;52.268;10.506;2023-04-29T11:56:52;100721.78;;;19.85;50.75
32638;BME280;19045;52.268;10.506;2023-04-29T11:59:21;100706.97;;;20.08;48.08
32638;BME280;19045;52.268;10.506;2023-04-29T12:01:48;100721.09;;;18.58;51.69
32638;BME280;19045;52.268;10.506;2023-04-29T12:04:15;100720.28;;;18.57;52.61
32638;BME280;19045;52.268;10.506;2023-04-29T12:06:41;100725.28;;;17.91;53.23
32638;BME280;19045;52.268;10.506;2023-04-29T12:09:08;100723.97;;;17.37;54.79
32638;BME280;19045;52.268;10.506;2023-04-29T12:11:35;100735.38;;;16.97;56.37
32638;BME280;19045;52.268;10.506;2023-04-29T12:14:02;100730.56;;;16.46;57.78
32638;BME280;19045;52.268;10.506;2023-04-29T12:16:32;100733.19;;;16.04;58.27
32638;BME280;19045;52.268;10.506;2023-04-29T12:18:59;100739.31;;;15.86;57.38
32638;BME280;19045;52.268;10.506;2023-04-29T12:21:27;100732.81;;;15.82;57.72
32638;BME280;19045;52.268;10.506;2023-04-29T12:23:57;100738.69;;;15.94;57.71
32638;BME280;19045;52.268;10.506;2023-04-29T12:26:27;100731.03;;;16.01;56.74
32638;BME280;19045;52.268;10.506;2023-04-29T12:28:56;100729.22;;;16.20;57.19
32638;BME280;19045;52.268;10.506;2023-04-29T12:31:25;100737.50;;;16.34;56.27
32638;BME280;19045;52.268;10.506;2023-04-29T12:33:58;100741.88;;;16.01;56.36
32638;BME280;19045;52.268;10.506;2023-04-29T12:36:27;100747.19;;;15.82;56.82
32638;BME280;19045;52.268;10.506;2023-04-29T12:38:53;100741.41;;;15.60;55.79